Anicuns, Brazil
Current Conditions -  °F | °C
As of 9:00 PM on Saturday 25 Oct 2014 (Local Time) from SBGO Reporting Station
Broken Clouds Broken Clouds  
Wind Chill: 72°   Ceiling: 8000
Heat Index: 72°   Visibility: 6mi
Dew Point: 66°   Wind: 6mph
Humidity: 83%   Direction: 150°SSE
Pressure: 30"   Gusts: NA
Location:  16.46°S, 49.96°W
Report Text: SBGO 252300Z 15005KT 9999 SCT020 BKN080 22/19 Q1016
Loading
Personal Weather Stations






























Interactive Weather Map New forecast layout! Learn more

10-Day Weather Forecast

Advertisements
Track Severe Weather on mobile